RJFY(METAR)
06/25 14:00
METAR RJFY 250500Z 07013KT 9999 FEW020 BKN060 26/19 Q1014 RMK 1CU020
7SC060 A2995=
戻る
トップページへ戻る
IMOC Co,.Ltd.